CheckWX is a tool to help pilots better visualize weather data.  It is not intended as a substitute for an official pre-flight weather briefing.

06:48:06 UTC

EHFD METAR
F3-fb-1 Sea
F3-fb-1 Sea, The Netherlands
Current

23 mins ago

EHFD 210625Z AUTO 33008KT 0100 DZRA OVC000/// 11/10 Q1011 W///H///
Observed
May-21 @ 06:25 UTC
Wind
  • 330° at 8 KTS
Visibility
97 meters
Flight Rules
LIFR
Conditions
Drizzle, Rain
Cloud Levels
  • Overcast
Temperature
11°C / 52°F
Dewpoint
10°C / 50°F
Humidity
94%
Altimeter
29.85" Hg
Pressure
1010.92 hPa
Previous

53 mins ago

EHFD 210555Z AUTO VRB03KT 0150 FG OVC000/// 11/10 Q1012 W///H///
Observed
May-21 @ 05:55 UTC
Wind
  • Variable at 3 KTS
Visibility
145 meters
Flight Rules
LIFR
Conditions
Fog
Cloud Levels
  • Overcast
Temperature
11°C / 52°F
Dewpoint
10°C / 50°F
Humidity
94%
Altimeter
29.88" Hg
Pressure
1011.92 hPa
Previous

1 hour ago

EHFD 210525Z AUTO VRB03KT 0250 FG OVC000/// 10/10 Q1011 W///H///
Observed
May-21 @ 05:25 UTC
Wind
  • Variable at 3 KTS
Visibility
258 meters
Flight Rules
LIFR
Conditions
Fog
Cloud Levels
  • Overcast
Temperature
10°C / 50°F
Dewpoint
10°C / 50°F
Humidity
100%
Altimeter
29.85" Hg
Pressure
1010.92 hPa